sensor_id;sensor_type;location;lat;lon;timestamp;P1;durP1;ratioP1;P2;durP2;ratioP2
49366;SDS011;35245;52.026;8.540;2024-03-08T00:00:05;29.95;;;18.25;;
49366;SDS011;35245;52.026;8.540;2024-03-08T00:02:38;30.23;;;17.85;;
49366;SDS011;35245;52.026;8.540;2024-03-08T00:05:06;28.35;;;19.05;;
49366;SDS011;35245;52.026;8.540;2024-03-08T00:07:34;27.25;;;19.02;;
49366;SDS011;35245;52.026;8.540;2024-03-08T00:10:02;28.90;;;18.73;;
49366;SDS011;35245;52.026;8.540;2024-03-08T00:12:29;29.67;;;19.17;;
49366;SDS011;35245;52.026;8.540;2024-03-08T00:14:57;30.25;;;18.83;;
49366;SDS011;35245;52.026;8.540;2024-03-08T00:17:24;27.70;;;18.02;;
49366;SDS011;35245;52.026;8.540;2024-03-08T00:19:53;27.00;;;18.27;;
49366;SDS011;35245;52.026;8.540;2024-03-08T00:22:21;30.08;;;19.15;;
49366;SDS011;35245;52.026;8.540;2024-03-08T00:24:48;32.58;;;19.23;;
49366;SDS011;35245;52.026;8.540;2024-03-08T00:27:16;27.92;;;18.77;;
49366;SDS011;35245;52.026;8.540;2024-03-08T00:29:46;30.55;;;17.92;;
49366;SDS011;35245;52.026;8.540;2024-03-08T00:32:13;31.52;;;18.58;;
49366;SDS011;35245;52.026;8.540;2024-03-08T00:34:40;28.13;;;18.77;;
49366;SDS011;35245;52.026;8.540;2024-03-08T00:37:09;28.33;;;19.02;;
49366;SDS011;35245;52.026;8.540;2024-03-08T00:39:36;31.65;;;20.17;;
49366;SDS011;35245;52.026;8.540;2024-03-08T00:42:03;30.40;;;19.85;;
49366;SDS011;35245;52.026;8.540;2024-03-08T00:44:30;34.20;;;20.40;;
49366;SDS011;35245;52.026;8.540;2024-03-08T00:46:57;30.10;;;20.17;;
49366;SDS011;35245;52.026;8.540;2024-03-08T00:49:25;32.55;;;20.75;;
49366;SDS011;35245;52.026;8.540;2024-03-08T00:51:52;30.52;;;19.67;;
49366;SDS011;35245;52.026;8.540;2024-03-08T00:54:20;29.38;;;19.17;;
49366;SDS011;35245;52.026;8.540;2024-03-08T00:56:47;27.55;;;18.67;;
49366;SDS011;35245;52.026;8.540;2024-03-08T00:59:15;27.58;;;19.40;;
49366;SDS011;35245;52.026;8.540;2024-03-08T01:01:42;32.45;;;19.15;;
49366;SDS011;35245;52.026;8.540;2024-03-08T01:04:10;28.27;;;19.20;;
49366;SDS011;35245;52.026;8.540;2024-03-08T01:06:37;30.58;;;20.15;;
49366;SDS011;35245;52.026;8.540;2024-03-08T01:09:04;26.83;;;19.20;;
49366;SDS011;35245;52.026;8.540;2024-03-08T01:11:33;28.17;;;19.60;;
49366;SDS011;35245;52.026;8.540;2024-03-08T01:14:00;25.17;;;18.42;;
49366;SDS011;35245;52.026;8.540;2024-03-08T01:16:27;29.63;;;20.05;;
49366;SDS011;35245;52.026;8.540;2024-03-08T01:18:55;29.42;;;19.40;;
49366;SDS011;35245;52.026;8.540;2024-03-08T01:21:22;30.75;;;19.83;;
49366;SDS011;35245;52.026;8.540;2024-03-08T01:23:49;29.05;;;19.48;;
49366;SDS011;35245;52.026;8.540;2024-03-08T01:26:16;28.42;;;20.30;;
49366;SDS011;35245;52.026;8.540;2024-03-08T01:28:44;33.35;;;20.73;;
49366;SDS011;35245;52.026;8.540;2024-03-08T01:31:11;31.35;;;20.45;;
49366;SDS011;35245;52.026;8.540;2024-03-08T01:33:38;29.88;;;20.63;;
49366;SDS011;35245;52.026;8.540;2024-03-08T01:36:06;30.98;;;20.60;;
49366;SDS011;35245;52.026;8.540;2024-03-08T01:38:33;31.15;;;20.40;;
49366;SDS011;35245;52.026;8.540;2024-03-08T01:41:01;30.35;;;20.00;;
49366;SDS011;35245;52.026;8.540;2024-03-08T01:43:29;29.50;;;20.77;;
49366;SDS011;35245;52.026;8.540;2024-03-08T01:45:58;34.95;;;21.55;;
49366;SDS011;35245;52.026;8.540;2024-03-08T01:48:25;30.75;;;20.17;;
49366;SDS011;35245;52.026;8.540;2024-03-08T01:50:54;35.97;;;21.90;;
49366;SDS011;35245;52.026;8.540;2024-03-08T01:53:23;35.30;;;21.20;;
49366;SDS011;35245;52.026;8.540;2024-03-08T01:55:53;35.42;;;22.52;;
49366;SDS011;35245;52.026;8.540;2024-03-08T01:58:23;36.17;;;23.02;;
49366;SDS011;35245;52.026;8.540;2024-03-08T02:00:53;35.08;;;21.90;;
49366;SDS011;35245;52.026;8.540;2024-03-08T02:03:23;31.40;;;21.10;;
49366;SDS011;35245;52.026;8.540;2024-03-08T02:05:51;36.83;;;22.10;;
49366;SDS011;35245;52.026;8.540;2024-03-08T02:08:19;30.55;;;21.75;;
49366;SDS011;35245;52.026;8.540;2024-03-08T02:10:47;31.40;;;20.67;;
49366;SDS011;35245;52.026;8.540;2024-03-08T02:13:16;33.65;;;22.75;;
49366;SDS011;35245;52.026;8.540;2024-03-08T02:15:53;33.90;;;22.15;;
49366;SDS011;35245;52.026;8.540;2024-03-08T02:18:22;33.13;;;21.70;;
49366;SDS011;35245;52.026;8.540;2024-03-08T02:20:52;32.53;;;22.15;;
49366;SDS011;35245;52.026;8.540;2024-03-08T02:23:20;32.67;;;21.60;;
49366;SDS011;35245;52.026;8.540;2024-03-08T02:25:47;32.25;;;22.05;;
49366;SDS011;35245;52.026;8.540;2024-03-08T02:28:15;31.92;;;20.88;;
49366;SDS011;35245;52.026;8.540;2024-03-08T02:30:43;31.75;;;20.33;;
49366;SDS011;35245;52.026;8.540;2024-03-08T02:33:13;32.20;;;22.15;;
49366;SDS011;35245;52.026;8.540;2024-03-08T02:35:43;34.87;;;22.93;;
49366;SDS011;35245;52.026;8.540;2024-03-08T02:38:12;33.13;;;21.70;;
49366;SDS011;35245;52.026;8.540;2024-03-08T02:40:41;30.15;;;21.58;;
49366;SDS011;35245;52.026;8.540;2024-03-08T02:43:09;33.15;;;20.67;;
49366;SDS011;35245;52.026;8.540;2024-03-08T02:45:36;35.97;;;22.38;;
49366;SDS011;35245;52.026;8.540;2024-03-08T02:48:04;34.58;;;23.38;;
49366;SDS011;35245;52.026;8.540;2024-03-08T02:50:32;35.33;;;23.40;;
49366;SDS011;35245;52.026;8.540;2024-03-08T02:53:01;33.78;;;23.15;;
49366;SDS011;35245;52.026;8.540;2024-03-08T02:55:30;38.50;;;25.02;;
49366;SDS011;35245;52.026;8.540;2024-03-08T02:57:58;35.30;;;24.50;;
49366;SDS011;35245;52.026;8.540;2024-03-08T03:00:25;34.63;;;22.85;;
49366;SDS011;35245;52.026;8.540;2024-03-08T03:02:55;35.78;;;24.42;;
49366;SDS011;35245;52.026;8.540;2024-03-08T03:05:23;35.92;;;24.05;;
49366;SDS011;35245;52.026;8.540;2024-03-08T03:07:50;35.92;;;21.83;;
49366;SDS011;35245;52.026;8.540;2024-03-08T03:10:18;34.10;;;22.88;;
49366;SDS011;35245;52.026;8.540;2024-03-08T03:12:48;36.13;;;24.45;;
49366;SDS011;35245;52.026;8.540;2024-03-08T03:15:16;36.83;;;24.70;;
49366;SDS011;35245;52.026;8.540;2024-03-08T03:17:45;36.15;;;23.85;;
49366;SDS011;35245;52.026;8.540;2024-03-08T03:20:13;36.42;;;24.83;;
49366;SDS011;35245;52.026;8.540;2024-03-08T03:22:47;34.13;;;23.90;;
49366;SDS011;35245;52.026;8.540;2024-03-08T03:25:17;33.15;;;22.40;;
49366;SDS011;35245;52.026;8.540;2024-03-08T03:27:51;38.80;;;25.33;;
49366;SDS011;35245;52.026;8.540;2024-03-08T03:30:21;35.13;;;24.13;;
49366;SDS011;35245;52.026;8.540;2024-03-08T03:32:48;33.65;;;22.42;;
49366;SDS011;35245;52.026;8.540;2024-03-08T03:35:16;37.20;;;24.42;;
49366;SDS011;35245;52.026;8.540;2024-03-08T03:37:45;35.67;;;22.95;;
49366;SDS011;35245;52.026;8.540;2024-03-08T03:40:26;36.67;;;23.60;;
49366;SDS011;35245;52.026;8.540;2024-03-08T03:42:55;33.70;;;22.70;;
49366;SDS011;35245;52.026;8.540;2024-03-08T03:45:22;37.60;;;24.63;;
49366;SDS011;35245;52.026;8.540;2024-03-08T03:47:49;36.05;;;25.40;;
49366;SDS011;35245;52.026;8.540;2024-03-08T03:50:17;38.35;;;23.83;;
49366;SDS011;35245;52.026;8.540;2024-03-08T03:52:45;38.42;;;25.38;;
49366;SDS011;35245;52.026;8.540;2024-03-08T03:55:13;36.80;;;23.50;;
49366;SDS011;35245;52.026;8.540;2024-03-08T03:57:40;34.55;;;23.10;;
49366;SDS011;35245;52.026;8.540;2024-03-08T04:00:10;35.42;;;22.95;;
49366;SDS011;35245;52.026;8.540;2024-03-08T04:02:38;32.85;;;22.25;;
49366;SDS011;35245;52.026;8.540;2024-03-08T04:05:07;37.85;;;23.88;;
49366;SDS011;35245;52.026;8.540;2024-03-08T04:07:35;37.42;;;24.95;;
49366;SDS011;35245;52.026;8.540;2024-03-08T04:10:03;33.00;;;23.58;;
49366;SDS011;35245;52.026;8.540;2024-03-08T04:12:32;36.55;;;23.92;;
49366;SDS011;35245;52.026;8.540;2024-03-08T04:14:59;37.72;;;24.20;;
49366;SDS011;35245;52.026;8.540;2024-03-08T04:17:28;38.35;;;24.33;;
49366;SDS011;35245;52.026;8.540;2024-03-08T04:19:56;34.60;;;22.80;;
49366;SDS011;35245;52.026;8.540;2024-03-08T04:22:23;39.85;;;25.05;;
49366;SDS011;35245;52.026;8.540;2024-03-08T04:24:50;37.15;;;24.15;;
49366;SDS011;35245;52.026;8.540;2024-03-08T04:27:17;38.00;;;24.15;;
49366;SDS011;35245;52.026;8.540;2024-03-08T04:29:44;38.35;;;25.63;;
49366;SDS011;35245;52.026;8.540;2024-03-08T04:32:11;35.65;;;23.73;;
49366;SDS011;35245;52.026;8.540;2024-03-08T04:34:40;34.92;;;24.40;;
49366;SDS011;35245;52.026;8.540;2024-03-08T04:37:07;41.03;;;24.25;;
49366;SDS011;35245;52.026;8.540;2024-03-08T04:39:36;34.25;;;23.40;;
49366;SDS011;35245;52.026;8.540;2024-03-08T04:42:03;39.03;;;25.83;;
49366;SDS011;35245;52.026;8.540;2024-03-08T04:44:35;37.30;;;23.65;;
49366;SDS011;35245;52.026;8.540;2024-03-08T04:47:02;39.08;;;25.88;;
49366;SDS011;35245;52.026;8.540;2024-03-08T04:49:31;40.80;;;25.83;;
49366;SDS011;35245;52.026;8.540;2024-03-08T04:52:01;37.08;;;24.25;;
49366;SDS011;35245;52.026;8.540;2024-03-08T04:54:29;37.55;;;24.05;;
49366;SDS011;35245;52.026;8.540;2024-03-08T04:56:56;37.50;;;25.30;;
49366;SDS011;35245;52.026;8.540;2024-03-08T04:59:25;40.25;;;26.20;;
49366;SDS011;35245;52.026;8.540;2024-03-08T05:01:52;37.25;;;24.75;;
49366;SDS011;35245;52.026;8.540;2024-03-08T05:04:19;37.65;;;24.45;;
49366;SDS011;35245;52.026;8.540;2024-03-08T05:06:47;36.47;;;25.02;;
49366;SDS011;35245;52.026;8.540;2024-03-08T05:09:16;39.55;;;25.77;;
49366;SDS011;35245;52.026;8.540;2024-03-08T05:11:44;37.45;;;24.63;;
49366;SDS011;35245;52.026;8.540;2024-03-08T05:14:13;38.80;;;24.55;;
49366;SDS011;35245;52.026;8.540;2024-03-08T05:16:42;39.72;;;24.73;;
49366;SDS011;35245;52.026;8.540;2024-03-08T05:19:13;39.88;;;25.63;;
49366;SDS011;35245;52.026;8.540;2024-03-08T05:21:42;36.97;;;24.67;;
49366;SDS011;35245;52.026;8.540;2024-03-08T05:24:09;36.53;;;24.30;;
49366;SDS011;35245;52.026;8.540;2024-03-08T05:26:39;45.28;;;27.80;;
49366;SDS011;35245;52.026;8.540;2024-03-08T05:29:06;45.08;;;26.00;;
49366;SDS011;35245;52.026;8.540;2024-03-08T05:31:36;38.95;;;25.95;;
49366;SDS011;35245;52.026;8.540;2024-03-08T05:34:12;41.28;;;25.25;;
49366;SDS011;35245;52.026;8.540;2024-03-08T05:36:40;38.65;;;25.27;;
49366;SDS011;35245;52.026;8.540;2024-03-08T05:39:09;37.75;;;23.80;;
49366;SDS011;35245;52.026;8.540;2024-03-08T05:41:37;39.10;;;26.30;;
49366;SDS011;35245;52.026;8.540;2024-03-08T05:44:05;39.60;;;25.83;;
49366;SDS011;35245;52.026;8.540;2024-03-08T05:46:33;37.70;;;24.98;;
49366;SDS011;35245;52.026;8.540;2024-03-08T05:49:00;40.45;;;25.88;;
49366;SDS011;35245;52.026;8.540;2024-03-08T05:51:30;40.95;;;24.30;;
49366;SDS011;35245;52.026;8.540;2024-03-08T05:53:59;41.83;;;26.00;;
49366;SDS011;35245;52.026;8.540;2024-03-08T05:56:27;38.92;;;25.15;;
49366;SDS011;35245;52.026;8.540;2024-03-08T05:58:56;41.97;;;26.95;;
49366;SDS011;35245;52.026;8.540;2024-03-08T06:01:24;42.03;;;26.25;;
49366;SDS011;35245;52.026;8.540;2024-03-08T06:03:51;44.85;;;27.00;;
49366;SDS011;35245;52.026;8.540;2024-03-08T06:06:20;39.70;;;23.77;;
49366;SDS011;35245;52.026;8.540;2024-03-08T06:08:48;46.05;;;25.55;;
49366;SDS011;35245;52.026;8.540;2024-03-08T06:11:15;44.50;;;27.25;;
49366;SDS011;35245;52.026;8.540;2024-03-08T06:13:43;43.33;;;26.90;;
49366;SDS011;35245;52.026;8.540;2024-03-08T06:16:12;42.33;;;26.55;;
49366;SDS011;35245;52.026;8.540;2024-03-08T06:18:39;45.05;;;25.95;;
49366;SDS011;35245;52.026;8.540;2024-03-08T06:21:06;40.55;;;24.85;;
49366;SDS011;35245;52.026;8.540;2024-03-08T06:23:36;38.13;;;25.40;;
49366;SDS011;35245;52.026;8.540;2024-03-08T06:26:04;39.30;;;25.55;;
49366;SDS011;35245;52.026;8.540;2024-03-08T06:28:31;39.30;;;24.98;;
49366;SDS011;35245;52.026;8.540;2024-03-08T06:30:59;40.03;;;25.42;;
49366;SDS011;35245;52.026;8.540;2024-03-08T06:33:28;41.72;;;26.52;;
49366;SDS011;35245;52.026;8.540;2024-03-08T06:35:57;41.03;;;26.17;;
49366;SDS011;35245;52.026;8.540;2024-03-08T06:38:25;42.08;;;26.17;;
49366;SDS011;35245;52.026;8.540;2024-03-08T06:40:52;39.05;;;25.25;;
49366;SDS011;35245;52.026;8.540;2024-03-08T06:43:20;51.97;;;26.63;;
49366;SDS011;35245;52.026;8.540;2024-03-08T06:45:50;39.40;;;25.60;;
49366;SDS011;35245;52.026;8.540;2024-03-08T06:48:17;37.22;;;24.45;;
49366;SDS011;35245;52.026;8.540;2024-03-08T06:50:46;48.88;;;26.30;;
49366;SDS011;35245;52.026;8.540;2024-03-08T06:53:14;40.22;;;27.02;;
49366;SDS011;35245;52.026;8.540;2024-03-08T06:55:44;40.10;;;25.83;;
49366;SDS011;35245;52.026;8.540;2024-03-08T06:58:11;41.08;;;25.48;;
49366;SDS011;35245;52.026;8.540;2024-03-08T07:00:38;39.83;;;26.02;;
49366;SDS011;35245;52.026;8.540;2024-03-08T07:03:07;39.90;;;24.52;;
49366;SDS011;35245;52.026;8.540;2024-03-08T07:05:37;38.70;;;25.95;;
49366;SDS011;35245;52.026;8.540;2024-03-08T07:08:06;40.47;;;26.75;;
49366;SDS011;35245;52.026;8.540;2024-03-08T07:10:33;39.95;;;25.63;;
49366;SDS011;35245;52.026;8.540;2024-03-08T07:13:02;40.72;;;25.50;;
49366;SDS011;35245;52.026;8.540;2024-03-08T07:15:29;39.33;;;25.25;;
49366;SDS011;35245;52.026;8.540;2024-03-08T07:17:57;39.30;;;24.38;;
49366;SDS011;35245;52.026;8.540;2024-03-08T07:20:25;43.78;;;24.95;;
49366;SDS011;35245;52.026;8.540;2024-03-08T07:22:53;39.75;;;23.98;;
49366;SDS011;35245;52.026;8.540;2024-03-08T07:25:22;36.35;;;21.90;;
49366;SDS011;35245;52.026;8.540;2024-03-08T07:27:54;35.25;;;24.25;;
49366;SDS011;35245;52.026;8.540;2024-03-08T07:30:22;42.30;;;24.98;;
49366;SDS011;35245;52.026;8.540;2024-03-08T07:33:17;40.40;;;25.52;;
49366;SDS011;35245;52.026;8.540;2024-03-08T07:35:44;43.28;;;25.98;;
49366;SDS011;35245;52.026;8.540;2024-03-08T07:38:12;39.47;;;24.48;;
49366;SDS011;35245;52.026;8.540;2024-03-08T07:40:41;39.03;;;23.95;;
49366;SDS011;35245;52.026;8.540;2024-03-08T07:43:10;42.40;;;24.95;;
49366;SDS011;35245;52.026;8.540;2024-03-08T07:45:37;36.33;;;23.63;;
49366;SDS011;35245;52.026;8.540;2024-03-08T07:48:05;38.42;;;25.63;;
49366;SDS011;35245;52.026;8.540;2024-03-08T07:50:35;42.40;;;26.90;;
49366;SDS011;35245;52.026;8.540;2024-03-08T07:53:02;38.53;;;25.65;;
49366;SDS011;35245;52.026;8.540;2024-03-08T07:55:31;45.38;;;27.48;;
49366;SDS011;35245;52.026;8.540;2024-03-08T07:58:00;39.85;;;25.55;;
49366;SDS011;35245;52.026;8.540;2024-03-08T08:00:28;41.75;;;25.58;;
49366;SDS011;35245;52.026;8.540;2024-03-08T08:02:56;38.17;;;24.45;;
49366;SDS011;35245;52.026;8.540;2024-03-08T08:05:23;37.63;;;24.85;;
49366;SDS011;35245;52.026;8.540;2024-03-08T08:07:51;40.10;;;26.52;;
49366;SDS011;35245;52.026;8.540;2024-03-08T08:10:18;40.75;;;23.90;;
49366;SDS011;35245;52.026;8.540;2024-03-08T08:12:47;39.15;;;25.65;;
49366;SDS011;35245;52.026;8.540;2024-03-08T08:15:16;39.40;;;26.33;;
49366;SDS011;35245;52.026;8.540;2024-03-08T08:17:43;40.20;;;25.83;;
49366;SDS011;35245;52.026;8.540;2024-03-08T08:20:11;43.10;;;25.65;;
49366;SDS011;35245;52.026;8.540;2024-03-08T08:22:39;39.92;;;25.73;;
49366;SDS011;35245;52.026;8.540;2024-03-08T08:25:07;40.97;;;25.65;;
49366;SDS011;35245;52.026;8.540;2024-03-08T08:27:36;41.90;;;26.58;;
49366;SDS011;35245;52.026;8.540;2024-03-08T08:30:05;37.95;;;25.23;;
49366;SDS011;35245;52.026;8.540;2024-03-08T08:32:34;39.22;;;25.33;;
49366;SDS011;35245;52.026;8.540;2024-03-08T08:35:02;35.55;;;24.48;;
49366;SDS011;35245;52.026;8.540;2024-03-08T08:37:30;39.78;;;26.35;;
49366;SDS011;35245;52.026;8.540;2024-03-08T08:39:56;36.85;;;24.40;;
49366;SDS011;35245;52.026;8.540;2024-03-08T08:42:30;39.67;;;24.98;;
49366;SDS011;35245;52.026;8.540;2024-03-08T08:44:57;37.00;;;24.48;;
49366;SDS011;35245;52.026;8.540;2024-03-08T08:47:24;35.00;;;23.55;;
49366;SDS011;35245;52.026;8.540;2024-03-08T08:49:53;38.67;;;25.38;;
49366;SDS011;35245;52.026;8.540;2024-03-08T08:52:20;38.92;;;25.95;;
49366;SDS011;35245;52.026;8.540;2024-03-08T08:54:48;36.08;;;24.15;;
49366;SDS011;35245;52.026;8.540;2024-03-08T08:57:16;44.15;;;24.98;;
49366;SDS011;35245;52.026;8.540;2024-03-08T08:59:43;33.90;;;24.25;;
49366;SDS011;35245;52.026;8.540;2024-03-08T09:02:10;34.88;;;23.67;;
49366;SDS011;35245;52.026;8.540;2024-03-08T09:04:37;39.45;;;26.52;;
49366;SDS011;35245;52.026;8.540;2024-03-08T09:07:06;39.13;;;24.42;;
49366;SDS011;35245;52.026;8.540;2024-03-08T09:09:33;48.28;;;25.42;;
49366;SDS011;35245;52.026;8.540;2024-03-08T09:12:01;35.28;;;24.50;;
49366;SDS011;35245;52.026;8.540;2024-03-08T09:14:28;37.75;;;24.08;;
49366;SDS011;35245;52.026;8.540;2024-03-08T09:16:55;37.17;;;24.10;;
49366;SDS011;35245;52.026;8.540;2024-03-08T09:19:22;43.63;;;27.65;;
49366;SDS011;35245;52.026;8.540;2024-03-08T09:21:51;36.92;;;24.63;;
49366;SDS011;35245;52.026;8.540;2024-03-08T09:24:19;37.47;;;23.85;;
49366;SDS011;35245;52.026;8.540;2024-03-08T09:26:46;37.22;;;25.35;;
49366;SDS011;35245;52.026;8.540;2024-03-08T09:29:13;35.03;;;23.98;;
49366;SDS011;35245;52.026;8.540;2024-03-08T09:31:41;35.25;;;23.10;;
49366;SDS011;35245;52.026;8.540;2024-03-08T09:34:08;36.80;;;23.35;;
49366;SDS011;35245;52.026;8.540;2024-03-08T09:36:35;34.92;;;23.27;;
49366;SDS011;35245;52.026;8.540;2024-03-08T09:39:02;34.28;;;23.52;;
49366;SDS011;35245;52.026;8.540;2024-03-08T09:41:33;33.95;;;23.67;;
49366;SDS011;35245;52.026;8.540;2024-03-08T09:44:01;35.28;;;24.15;;
49366;SDS011;35245;52.026;8.540;2024-03-08T09:46:30;36.80;;;23.92;;
49366;SDS011;35245;52.026;8.540;2024-03-08T09:48:57;33.72;;;23.10;;
49366;SDS011;35245;52.026;8.540;2024-03-08T09:51:27;33.50;;;22.48;;
49366;SDS011;35245;52.026;8.540;2024-03-08T09:53:56;34.72;;;21.60;;
49366;SDS011;35245;52.026;8.540;2024-03-08T09:56:24;37.30;;;23.75;;
49366;SDS011;35245;52.026;8.540;2024-03-08T09:58:54;37.65;;;22.27;;
49366;SDS011;35245;52.026;8.540;2024-03-08T10:01:43;33.20;;;22.08;;
49366;SDS011;35245;52.026;8.540;2024-03-08T10:04:11;31.98;;;21.38;;
49366;SDS011;35245;52.026;8.540;2024-03-08T10:06:39;32.60;;;23.02;;
49366;SDS011;35245;52.026;8.540;2024-03-08T10:09:06;34.50;;;21.92;;
49366;SDS011;35245;52.026;8.540;2024-03-08T10:11:35;32.95;;;21.45;;
49366;SDS011;35245;52.026;8.540;2024-03-08T10:14:04;30.80;;;21.15;;
49366;SDS011;35245;52.026;8.540;2024-03-08T10:16:32;33.75;;;22.42;;
49366;SDS011;35245;52.026;8.540;2024-03-08T10:19:00;32.00;;;20.52;;
49366;SDS011;35245;52.026;8.540;2024-03-08T10:21:28;30.38;;;21.20;;
49366;SDS011;35245;52.026;8.540;2024-03-08T10:23:55;30.10;;;20.60;;
49366;SDS011;35245;52.026;8.540;2024-03-08T10:26:24;33.90;;;21.02;;
49366;SDS011;35245;52.026;8.540;2024-03-08T10:28:51;32.47;;;21.27;;
49366;SDS011;35245;52.026;8.540;2024-03-08T10:31:20;31.67;;;21.83;;
49366;SDS011;35245;52.026;8.540;2024-03-08T10:33:47;30.75;;;20.10;;
49366;SDS011;35245;52.026;8.540;2024-03-08T10:36:15;31.30;;;20.88;;
49366;SDS011;35245;52.026;8.540;2024-03-08T10:38:44;32.03;;;22.10;;
49366;SDS011;35245;52.026;8.540;2024-03-08T10:41:12;33.95;;;22.20;;
49366;SDS011;35245;52.026;8.540;2024-03-08T10:43:46;32.67;;;20.80;;
49366;SDS011;35245;52.026;8.540;2024-03-08T10:46:36;28.53;;;19.23;;
49366;SDS011;35245;52.026;8.540;2024-03-08T10:49:16;31.10;;;20.83;;
49366;SDS011;35245;52.026;8.540;2024-03-08T10:51:44;28.45;;;20.48;;
49366;SDS011;35245;52.026;8.540;2024-03-08T10:54:12;28.45;;;19.85;;
49366;SDS011;35245;52.026;8.540;2024-03-08T10:56:42;30.20;;;20.13;;
49366;SDS011;35245;52.026;8.540;2024-03-08T10:59:09;27.25;;;18.85;;
49366;SDS011;35245;52.026;8.540;2024-03-08T11:01:40;27.40;;;19.98;;
49366;SDS011;35245;52.026;8.540;2024-03-08T11:04:07;30.55;;;19.83;;
49366;SDS011;35245;52.026;8.540;2024-03-08T11:06:41;32.00;;;19.15;;
49366;SDS011;35245;52.026;8.540;2024-03-08T11:09:11;29.02;;;20.80;;
49366;SDS011;35245;52.026;8.540;2024-03-08T11:14:47;29.35;;;20.58;;
49366;SDS011;35245;52.026;8.540;2024-03-08T11:17:17;31.00;;;21.75;;
49366;SDS011;35245;52.026;8.540;2024-03-08T11:19:47;30.08;;;21.08;;
49366;SDS011;35245;52.026;8.540;2024-03-08T11:22:20;31.25;;;21.02;;
49366;SDS011;35245;52.026;8.540;2024-03-08T11:24:49;29.50;;;20.52;;
49366;SDS011;35245;52.026;8.540;2024-03-08T11:27:17;29.85;;;20.52;;
49366;SDS011;35245;52.026;8.540;2024-03-08T11:29:46;30.73;;;20.40;;
49366;SDS011;35245;52.026;8.540;2024-03-08T11:32:35;29.73;;;20.02;;
49366;SDS011;35245;52.026;8.540;2024-03-08T11:35:05;28.67;;;19.25;;
49366;SDS011;35245;52.026;8.540;2024-03-08T11:37:34;30.63;;;20.30;;
49366;SDS011;35245;52.026;8.540;2024-03-08T11:40:01;27.52;;;19.17;;
49366;SDS011;35245;52.026;8.540;2024-03-08T11:42:39;27.92;;;19.60;;
49366;SDS011;35245;52.026;8.540;2024-03-08T11:45:11;27.50;;;19.85;;
49366;SDS011;35245;52.026;8.540;2024-03-08T11:47:42;29.13;;;20.13;;
49366;SDS011;35245;52.026;8.540;2024-03-08T11:50:11;30.05;;;19.55;;
49366;SDS011;35245;52.026;8.540;2024-03-08T11:52:39;28.30;;;19.52;;
49366;SDS011;35245;52.026;8.540;2024-03-08T11:55:07;29.02;;;18.55;;
49366;SDS011;35245;52.026;8.540;2024-03-08T11:57:35;23.85;;;18.38;;
49366;SDS011;35245;52.026;8.540;2024-03-08T12:00:03;26.70;;;18.58;;
49366;SDS011;35245;52.026;8.540;2024-03-08T12:02:32;25.27;;;18.05;;
49366;SDS011;35245;52.026;8.540;2024-03-08T12:05:04;27.63;;;17.95;;
49366;SDS011;35245;52.026;8.540;2024-03-08T12:07:34;21.42;;;16.15;;
49366;SDS011;35245;52.026;8.540;2024-03-08T12:10:14;23.80;;;16.67;;
49366;SDS011;35245;52.026;8.540;2024-03-08T12:12:43;22.10;;;17.23;;
49366;SDS011;35245;52.026;8.540;2024-03-08T12:15:11;20.63;;;16.20;;
49366;SDS011;35245;52.026;8.540;2024-03-08T12:17:40;20.13;;;15.07;;
49366;SDS011;35245;52.026;8.540;2024-03-08T12:20:12;24.15;;;16.35;;
49366;SDS011;35245;52.026;8.540;2024-03-08T12:22:42;21.55;;;15.57;;
49366;SDS011;35245;52.026;8.540;2024-03-08T12:25:10;20.98;;;15.98;;
49366;SDS011;35245;52.026;8.540;2024-03-08T12:27:38;21.10;;;16.77;;
49366;SDS011;35245;52.026;8.540;2024-03-08T12:30:19;19.88;;;16.02;;
49366;SDS011;35245;52.026;8.540;2024-03-08T12:32:52;19.75;;;15.13;;
49366;SDS011;35245;52.026;8.540;2024-03-08T12:35:24;16.67;;;13.90;;
49366;SDS011;35245;52.026;8.540;2024-03-08T12:37:53;18.55;;;14.98;;
49366;SDS011;35245;52.026;8.540;2024-03-08T12:40:25;18.90;;;14.80;;
49366;SDS011;35245;52.026;8.540;2024-03-08T12:42:54;20.70;;;14.38;;
49366;SDS011;35245;52.026;8.540;2024-03-08T12:45:22;16.77;;;14.10;;
49366;SDS011;35245;52.026;8.540;2024-03-08T12:47:49;25.23;;;15.48;;
49366;SDS011;35245;52.026;8.540;2024-03-08T12:50:18;20.27;;;14.80;;
49366;SDS011;35245;52.026;8.540;2024-03-08T12:52:47;17.63;;;13.80;;
49366;SDS011;35245;52.026;8.540;2024-03-08T12:55:14;17.90;;;14.15;;
49366;SDS011;35245;52.026;8.540;2024-03-08T12:57:43;18.60;;;13.55;;
49366;SDS011;35245;52.026;8.540;2024-03-08T13:00:10;17.65;;;14.43;;
49366;SDS011;35245;52.026;8.540;2024-03-08T13:02:44;19.20;;;14.60;;
49366;SDS011;35245;52.026;8.540;2024-03-08T13:05:11;18.10;;;14.35;;
49366;SDS011;35245;52.026;8.540;2024-03-08T13:07:39;16.23;;;13.98;;
49366;SDS011;35245;52.026;8.540;2024-03-08T13:10:12;18.10;;;14.95;;
49366;SDS011;35245;52.026;8.540;2024-03-08T13:12:40;18.42;;;15.30;;
49366;SDS011;35245;52.026;8.540;2024-03-08T13:15:08;20.52;;;14.85;;
49366;SDS011;35245;52.026;8.540;2024-03-08T13:17:40;18.23;;;15.60;;
49366;SDS011;35245;52.026;8.540;2024-03-08T13:20:07;18.42;;;16.52;;
49366;SDS011;35245;52.026;8.540;2024-03-08T13:22:41;19.75;;;16.92;;
49366;SDS011;35245;52.026;8.540;2024-03-08T13:25:08;20.38;;;16.55;;
49366;SDS011;35245;52.026;8.540;2024-03-08T13:27:39;19.58;;;17.08;;
49366;SDS011;35245;52.026;8.540;2024-03-08T13:30:07;19.73;;;17.20;;
49366;SDS011;35245;52.026;8.540;2024-03-08T13:32:38;20.50;;;17.00;;
49366;SDS011;35245;52.026;8.540;2024-03-08T13:35:08;20.70;;;18.15;;
49366;SDS011;35245;52.026;8.540;2024-03-08T13:37:38;19.70;;;17.08;;
49366;SDS011;35245;52.026;8.540;2024-03-08T13:40:06;20.00;;;16.70;;
49366;SDS011;35245;52.026;8.540;2024-03-08T13:42:40;20.25;;;15.80;;
49366;SDS011;35245;52.026;8.540;2024-03-08T13:45:07;20.40;;;18.17;;
49366;SDS011;35245;52.026;8.540;2024-03-08T13:47:36;21.48;;;17.80;;
49366;SDS011;35245;52.026;8.540;2024-03-08T13:50:04;20.58;;;17.83;;
49366;SDS011;35245;52.026;8.540;2024-03-08T13:52:36;20.45;;;16.42;;
49366;SDS011;35245;52.026;8.540;2024-03-08T13:55:04;19.88;;;16.00;;
49366;SDS011;35245;52.026;8.540;2024-03-08T13:57:31;18.40;;;15.85;;
49366;SDS011;35245;52.026;8.540;2024-03-08T14:00:00;22.15;;;17.27;;
49366;SDS011;35245;52.026;8.540;2024-03-08T14:02:28;21.73;;;17.30;;
49366;SDS011;35245;52.026;8.540;2024-03-08T14:04:56;22.35;;;16.48;;
49366;SDS011;35245;52.026;8.540;2024-03-08T14:09:55;25.38;;;19.73;;
49366;SDS011;35245;52.026;8.540;2024-03-08T14:12:22;25.52;;;18.70;;
49366;SDS011;35245;52.026;8.540;2024-03-08T14:14:51;25.92;;;18.50;;
49366;SDS011;35245;52.026;8.540;2024-03-08T14:17:19;23.80;;;17.90;;
49366;SDS011;35245;52.026;8.540;2024-03-08T14:19:47;27.63;;;19.55;;
49366;SDS011;35245;52.026;8.540;2024-03-08T14:22:15;25.02;;;18.40;;
49366;SDS011;35245;52.026;8.540;2024-03-08T14:24:42;27.05;;;19.48;;
49366;SDS011;35245;52.026;8.540;2024-03-08T14:27:09;25.08;;;18.77;;
49366;SDS011;35245;52.026;8.540;2024-03-08T14:29:37;28.98;;;18.70;;
49366;SDS011;35245;52.026;8.540;2024-03-08T14:32:04;29.15;;;20.55;;
49366;SDS011;35245;52.026;8.540;2024-03-08T14:34:34;24.73;;;17.73;;